Time;durP1;ratioP1;P1;durP2;ratioP2;P2;SDS_P1;SDS_P2;PMS_P1;PMS_P2;Temp;Humidity;BMP_temperature;BMP_pressure;BME280_temperature;BME280_humidity;BME280_pressure;Samples;Min_cycle;Max_cycle;Signal;HPM_P1;HPM_P2
2022/05/03 00:01:07;;;;;;;2.65;1.85;;;18.20;50.10;;;;;;4933275;28;96405;-63
2022/05/03 00:03:56;;;;;;;3.65;2.10;;;18.20;50.10;;;;;;4933127;28;93072;-63
2022/05/03 00:06:37;;;;;;;2.47;2.00;;;18.20;50.10;;;;;;4933140;28;92474;-63
2022/05/03 00:09:07;;;;;;;2.20;2.00;;;18.20;50.10;;;;;;4931948;28;94347;-65
2022/05/03 00:11:50;;;;;;;2.47;2.03;;;18.20;50.20;;;;;;4932419;28;93655;-63
2022/05/03 00:14:30;;;;;;;2.42;1.77;;;18.20;50.10;;;;;;4932584;28;92488;-62
2022/05/03 00:16:58;;;;;;;2.88;2.00;;;18.10;50.10;;;;;;4933493;28;92257;-63
2022/05/03 00:19:24;;;;;;;2.33;2.10;;;18.20;50.20;;;;;;4931395;28;93173;-63
2022/05/03 00:21:50;;;;;;;2.22;1.90;;;18.20;50.20;;;;;;4931425;28;94550;-62
2022/05/03 00:24:17;;;;;;;2.97;2.10;;;18.10;50.20;;;;;;4931004;28;95207;-62
2022/05/03 00:26:44;;;;;;;2.83;2.10;;;18.20;50.20;;;;;;4931589;28;92635;-63
2022/05/03 00:29:11;;;;;;;2.65;1.98;;;18.10;50.10;;;;;;4931517;28;94202;-62
2022/05/03 00:31:37;;;;;;;3.92;2.00;;;18.10;50.10;;;;;;4931958;28;93737;-63
2022/05/03 00:34:03;;;;;;;2.83;1.98;;;18.10;50.10;;;;;;4931415;28;93334;-63
2022/05/03 00:36:28;;;;;;;2.20;1.92;;;18.10;50.10;;;;;;4932979;28;92510;-63
2022/05/03 00:38:54;;;;;;;2.40;1.90;;;18.10;50.20;;;;;;4931795;28;93170;-63
2022/05/03 00:41:41;;;;;;;2.00;1.80;;;18.10;50.20;;;;;;4931956;28;94158;-63
2022/05/03 00:47:18;;;;;;;3.03;1.90;;;18.10;50.10;;;;;;4931485;28;92835;-62
2022/05/03 00:50:06;;;;;;;2.10;1.85;;;18.10;50.30;;;;;;4929560;28;95925;-63
2022/05/03 00:53:02;;;;;;;2.28;1.85;;;18.10;50.20;;;;;;4931555;28;96807;-63
2022/05/03 00:55:49;;;;;;;2.65;2.00;;;18.10;50.20;;;;;;4932015;28;92515;-62
2022/05/03 00:58:48;;;;;;;2.80;1.92;;;18.10;50.30;;;;;;4932092;28;92950;-62
2022/05/03 01:01:16;;;;;;;2.05;1.85;;;18.10;50.20;;;;;;4931258;28;94242;-62
2022/05/03 01:04:08;;;;;;;2.35;2.00;;;18.10;50.20;;;;;;4931274;28;92920;-63
2022/05/03 01:06:52;;;;;;;3.00;2.20;;;18.10;50.20;;;;;;4931976;28;92662;-63
2022/05/03 01:09:30;;;;;;;2.47;2.28;;;18.00;50.20;;;;;;4915420;28;92176;-62
2022/05/03 01:12:07;;;;;;;2.20;2.00;;;18.00;50.10;;;;;;4932016;28;92989;-62
2022/05/03 01:15:00;;;;;;;2.15;1.90;;;18.00;50.20;;;;;;4931799;28;94467;-64
2022/05/03 01:18:05;;;;;;;2.47;1.90;;;18.00;50.10;;;;;;4930219;28;95443;-66
2022/05/03 01:21:17;;;;;;;2.30;2.10;;;18.00;50.20;;;;;;4916884;28;93813;-64
2022/05/03 01:24:04;;;;;;;2.08;1.92;;;18.00;50.20;;;;;;4927519;28;94459;-64
2022/05/03 01:26:44;;;;;;;2.58;1.95;;;18.00;50.20;;;;;;4930947;28;94486;-63
2022/05/03 01:29:22;;;;;;;2.72;2.03;;;18.00;50.20;;;;;;4931583;28;92713;-63
2022/05/03 01:31:53;;;;;;;2.10;1.88;;;18.00;50.20;;;;;;4931064;28;92553;-62
2022/05/03 01:34:19;;;;;;;2.35;1.90;;;18.00;50.20;;;;;;4931399;28;95033;-63
2022/05/03 01:37:13;;;;;;;2.33;1.90;;;18.00;50.20;;;;;;4930978;28;93842;-63
2022/05/03 01:40:06;;;;;;;2.40;2.20;;;18.00;51.10;;;;;;4931413;28;92810;-63
2022/05/03 01:42:44;;;;;;;2.85;2.25;;;17.90;50.20;;;;;;4931758;28;92826;-63
2022/05/03 01:45:11;;;;;;;3.83;2.20;;;17.90;50.20;;;;;;4930054;28;96531;-63
2022/05/03 01:48:15;;;;;;;3.28;2.17;;;18.00;50.20;;;;;;4930902;28;96544;-63
2022/05/03 01:50:45;;;;;;;3.35;2.20;;;17.90;50.10;;;;;;4931345;28;92724;-63
2022/05/03 01:53:18;;;;;;;2.30;2.05;;;17.90;50.20;;;;;;4932499;28;92978;-62
2022/05/03 01:55:49;;;;;;;3.05;2.25;;;17.90;50.20;;;;;;4931430;28;93827;-62
2022/05/03 01:58:35;;;;;;;2.30;2.00;;;18.00;51.20;;;;;;4929385;28;93946;-63
2022/05/03 02:01:33;;;;;;;1.92;1.75;;;18.00;50.20;;;;;;4930931;28;92600;-62
2022/05/03 02:04:09;;;;;;;2.28;1.90;;;17.90;50.20;;;;;;4931076;28;92055;-62
2022/05/03 02:06:50;;;;;;;2.00;1.80;;;17.90;50.20;;;;;;4931140;28;94329;-62
2022/05/03 02:09:25;;;;;;;2.28;2.00;;;17.90;50.20;;;;;;4931070;28;93948;-63
2022/05/03 02:12:04;;;;;;;2.83;1.90;;;17.90;50.30;;;;;;4930026;28;95521;-62
2022/05/03 02:14:46;;;;;;;2.67;1.92;;;17.90;50.30;;;;;;4932280;28;92991;-63
2022/05/03 02:17:35;;;;;;;2.60;1.98;;;17.90;50.30;;;;;;4929474;28;94114;-63
2022/05/03 02:20:31;;;;;;;3.70;2.17;;;17.90;50.30;;;;;;4918908;28;93772;-63
2022/05/03 02:23:05;;;;;;;3.28;2.10;;;17.90;50.30;;;;;;4929823;28;92929;-63
2022/05/03 02:25:55;;;;;;;2.60;1.80;;;17.90;50.30;;;;;;4930507;28;93070;-62
2022/05/03 02:28:30;;;;;;;2.47;1.88;;;17.80;50.20;;;;;;4930109;28;94186;-63
2022/05/03 02:31:02;;;;;;;2.33;2.10;;;17.90;50.30;;;;;;4930591;28;93947;-62
2022/05/03 02:33:43;;;;;;;3.55;2.10;;;17.80;50.20;;;;;;4930899;28;93058;-62
2022/05/03 02:36:14;;;;;;;2.58;1.90;;;17.80;50.20;;;;;;4931644;28;92829;-67
2022/05/03 02:38:59;;;;;;;3.05;2.15;;;17.80;50.20;;;;;;4929700;28;95579;-62
2022/05/03 02:41:26;;;;;;;2.00;1.80;;;17.90;50.20;;;;;;4930197;28;96390;-63
2022/05/03 02:43:55;;;;;;;2.45;1.90;;;17.80;50.20;;;;;;4929058;28;92917;-63
2022/05/03 02:46:36;;;;;;;3.10;2.20;;;17.80;50.20;;;;;;4929701;28;92820;-63
2022/05/03 02:49:04;;;;;;;2.13;1.92;;;17.80;50.10;;;;;;4929463;28;94313;-65
2022/05/03 02:51:44;;;;;;;2.72;2.00;;;17.80;50.20;;;;;;4929641;28;93891;-62
2022/05/03 02:54:43;;;;;;;2.35;1.92;;;17.80;50.20;;;;;;4930262;28;93078;-64
2022/05/03 02:57:27;;;;;;;3.50;2.25;;;17.80;50.10;;;;;;4926412;28;92192;-63
2022/05/03 03:03:16;;;;;;;2.38;1.90;;;17.80;50.20;;;;;;4929974;28;93162;-63
2022/05/03 03:05:44;;;;;;;3.35;2.38;;;17.80;50.30;;;;;;4928534;28;95516;-62
2022/05/03 03:08:14;;;;;;;3.33;2.15;;;17.80;50.20;;;;;;4930276;28;92997;-63
2022/05/03 03:10:46;;;;;;;3.28;2.08;;;17.70;50.10;;;;;;4932733;28;94101;-65
2022/05/03 03:13:41;;;;;;;3.55;2.15;;;17.70;50.10;;;;;;4933614;28;96445;-65
2022/05/03 04:20:18;;;;;;;2.35;1.90;;;17.60;50.40;;;;;;4672650;22;99855;-64
2022/05/03 04:22:44;;;;;;;3.00;2.10;;;17.60;50.40;;;;;;4952947;28;93909;-62
2022/05/03 04:25:10;;;;;;;3.95;2.20;;;17.60;50.40;;;;;;4951935;28;92581;-62
2022/05/03 04:27:36;;;;;;;3.20;2.05;;;17.60;50.40;;;;;;4952202;28;92495;-62
2022/05/03 04:30:03;;;;;;;2.50;1.85;;;17.60;50.40;;;;;;4950899;28;96705;-62
2022/05/03 04:32:29;;;;;;;2.78;2.00;;;17.60;50.30;;;;;;4952213;28;96997;-62
2022/05/03 04:34:55;;;;;;;2.83;2.13;;;17.60;50.30;;;;;;4953584;28;92563;-62
2022/05/03 04:37:21;;;;;;;2.47;2.10;;;17.60;50.20;;;;;;4952440;28;92554;-63
2022/05/03 04:39:47;;;;;;;3.03;2.13;;;17.60;50.30;;;;;;4952710;28;95074;-62
2022/05/03 04:42:13;;;;;;;2.78;2.00;;;17.60;50.20;;;;;;4934693;28;96281;-61
2022/05/03 04:44:39;;;;;;;2.50;2.05;;;17.60;50.20;;;;;;4953060;28;92569;-62
2022/05/03 04:47:05;;;;;;;2.50;2.10;;;17.60;50.20;;;;;;4953053;28;91934;-62
2022/05/03 04:49:30;;;;;;;3.03;2.40;;;17.60;50.20;;;;;;4951335;28;94675;-62
2022/05/03 04:51:56;;;;;;;5.63;2.40;;;17.60;50.30;;;;;;4952114;28;92930;-62
2022/05/03 04:54:24;;;;;;;4.90;2.70;;;17.50;50.40;;;;;;4950455;28;95617;-63
2022/05/03 04:56:53;;;;;;;3.95;2.50;;;17.60;50.80;;;;;;4952740;28;92505;-62
2022/05/03 04:59:18;;;;;;;2.70;2.30;;;17.60;50.90;;;;;;4951777;28;94076;-65
2022/05/03 05:01:44;;;;;;;6.70;2.60;;;17.60;50.90;;;;;;4951984;28;98340;-62
2022/05/03 05:04:10;;;;;;;3.78;2.67;;;17.60;50.90;;;;;;4951685;28;97483;-63
2022/05/03 05:06:35;;;;;;;5.00;2.60;;;17.70;50.90;;;;;;4952325;28;93043;-63
2022/05/03 05:09:01;;;;;;;4.90;2.60;;;17.70;50.90;;;;;;4951607;28;93208;-63
2022/05/03 05:11:27;;;;;;;7.13;2.75;;;17.70;51.00;;;;;;4952591;28;92796;-63
2022/05/03 05:13:53;;;;;;;4.43;2.60;;;17.70;51.00;;;;;;4952525;28;92488;-64
2022/05/03 05:16:19;;;;;;;8.05;2.80;;;17.70;51.10;;;;;;4952316;28;93038;-63
2022/05/03 05:18:44;;;;;;;5.40;2.78;;;17.70;51.30;;;;;;4949310;28;97427;-63
2022/05/03 05:21:11;;;;;;;7.05;3.33;;;17.70;51.20;;;;;;4931786;28;96399;-63
2022/05/03 05:23:37;;;;;;;3.17;2.88;;;17.70;51.10;;;;;;4931488;28;93193;-63
2022/05/03 05:26:03;;;;;;;5.32;2.90;;;17.70;51.20;;;;;;4931894;28;92870;-64
2022/05/03 05:28:28;;;;;;;4.60;2.95;;;17.80;51.20;;;;;;4931670;28;94455;-64
2022/05/03 05:30:54;;;;;;;5.20;2.78;;;17.80;51.40;;;;;;4931785;28;97928;-62
2022/05/03 05:33:20;;;;;;;4.13;2.97;;;17.80;51.40;;;;;;4933081;28;92555;-64
2022/05/03 05:35:47;;;;;;;5.75;2.95;;;17.70;51.40;;;;;;4933274;28;93996;-63
2022/05/03 05:38:14;;;;;;;4.90;3.10;;;17.80;51.50;;;;;;4932414;28;94557;-62
2022/05/03 05:40:41;;;;;;;4.13;3.20;;;17.80;51.60;;;;;;4932957;28;94762;-62
2022/05/03 05:43:06;;;;;;;4.80;2.92;;;17.80;51.60;;;;;;4930176;28;95191;-63
2022/05/03 05:45:32;;;;;;;5.32;3.05;;;17.80;51.60;;;;;;4931812;28;92644;-64
2022/05/03 05:47:58;;;;;;;5.25;3.05;;;17.80;51.80;;;;;;4932186;28;94235;-63
2022/05/03 05:50:24;;;;;;;4.35;3.55;;;17.80;51.80;;;;;;4932021;28;93926;-63
2022/05/03 05:55:36;;;;;;;11.45;3.25;;;17.80;51.90;;;;;;4933443;28;92914;-64
2022/05/03 05:58:03;;;;;;;5.32;3.17;;;17.90;52.00;;;;;;4931549;28;94096;-63
2022/05/03 06:00:29;;;;;;;5.03;3.53;;;17.80;52.90;;;;;;4931536;28;92850;-63
2022/05/03 06:02:55;;;;;;;5.03;3.20;;;17.80;52.20;;;;;;4932662;28;93081;-63
2022/05/03 06:05:20;;;;;;;6.93;3.55;;;17.80;52.40;;;;;;4931417;28;92890;-63
2022/05/03 06:07:46;;;;;;;3.50;2.80;;;17.90;52.50;;;;;;4929374;28;96592;-64
2022/05/03 06:10:11;;;;;;;6.32;3.35;;;17.90;52.40;;;;;;4931740;28;95186;-64
2022/05/03 06:12:37;;;;;;;4.10;3.05;;;18.00;52.50;;;;;;4931034;28;94016;-63
2022/05/03 06:15:03;;;;;;;3.80;3.03;;;18.00;52.50;;;;;;4931692;28;93374;-63
2022/05/03 06:17:29;;;;;;;5.68;3.10;;;18.10;52.40;;;;;;4932219;28;94203;-64
2022/05/03 06:19:55;;;;;;;4.38;3.40;;;18.10;52.50;;;;;;4931104;28;93863;-63
2022/05/03 06:22:20;;;;;;;3.67;2.70;;;18.20;52.70;;;;;;4930946;28;98527;-64
2022/05/03 06:24:47;;;;;;;3.53;3.10;;;18.20;52.10;;;;;;4932092;28;91722;-63
2022/05/03 06:27:14;;;;;;;5.97;3.00;;;18.20;52.10;;;;;;4931442;28;93867;-63
2022/05/03 06:29:39;;;;;;;7.65;2.80;;;18.30;52.40;;;;;;4930733;28;93911;-64
2022/05/03 06:32:05;;;;;;;5.70;2.53;;;18.30;52.10;;;;;;4930837;28;94942;-64
2022/05/03 06:34:31;;;;;;;7.35;2.67;;;18.40;52.00;;;;;;4931345;28;92516;-63
2022/05/03 06:36:58;;;;;;;4.53;2.83;;;18.40;52.40;;;;;;4930581;28;93078;-64
2022/05/03 06:39:24;;;;;;;53.63;4.10;;;18.50;52.20;;;;;;4930584;28;94793;-63
2022/05/03 06:41:49;;;;;;;13.85;2.90;;;18.50;52.00;;;;;;4930712;28;92492;-62
2022/05/03 06:44:16;;;;;;;12.25;3.22;;;18.60;51.60;;;;;;4932848;28;93126;-63
2022/05/03 06:46:42;;;;;;;12.13;2.85;;;18.60;51.30;;;;;;4933656;28;93836;-63
2022/05/03 06:49:10;;;;;;;18.05;2.50;;;18.60;51.10;;;;;;4934661;28;94874;-63
2022/05/03 06:51:37;;;;;;;4.95;2.33;;;18.70;51.00;;;;;;4934825;28;93177;-63
2022/05/03 06:54:03;;;;;;;4.53;2.40;;;18.70;50.80;;;;;;4934473;28;93754;-63
2022/05/03 06:56:35;;;;;;;4.97;2.60;;;18.70;50.70;;;;;;4933916;28;96363;-63
2022/05/03 06:59:06;;;;;;;5.33;2.30;;;18.70;50.70;;;;;;4934044;28;97221;-65
2022/05/03 07:01:32;;;;;;;3.40;2.25;;;18.70;50.70;;;;;;4934570;28;92712;-63
2022/05/03 07:03:57;;;;;;;5.90;2.30;;;18.70;50.70;;;;;;4934232;28;92648;-62
2022/05/03 07:06:23;;;;;;;4.65;2.30;;;18.70;50.70;;;;;;4934218;28;94015;-62
2022/05/03 07:08:49;;;;;;;6.75;2.30;;;18.70;50.70;;;;;;4933698;28;94064;-63
2022/05/03 07:11:15;;;;;;;4.50;2.47;;;18.70;50.80;;;;;;4934766;28;92538;-62
2022/05/03 07:13:40;;;;;;;4.35;2.55;;;18.70;51.00;;;;;;4934337;28;92069;-63
2022/05/03 07:16:06;;;;;;;2.53;2.17;;;18.70;51.10;;;;;;4934083;28;93080;-65
2022/05/03 07:24:00;;;;;;;8.93;3.15;;;18.70;51.70;;;;;;4934741;28;92764;-63
2022/05/03 07:26:27;;;;;;;11.88;3.22;;;18.70;52.00;;;;;;4934492;28;94150;-65
2022/05/03 07:28:52;;;;;;;13.75;3.35;;;18.60;52.20;;;;;;4933650;28;94133;-65
2022/05/03 07:31:19;;;;;;;13.85;3.50;;;18.60;52.40;;;;;;4934516;28;92879;-64
2022/05/03 07:33:46;;;;;;;12.23;3.15;;;18.60;52.50;;;;;;4934220;28;92810;-64
2022/05/03 07:36:12;;;;;;;8.60;3.03;;;18.60;52.50;;;;;;4933413;28;94955;-66
2022/05/03 07:38:39;;;;;;;12.15;3.30;;;18.60;52.60;;;;;;4934396;28;94104;-64
2022/05/03 07:41:06;;;;;;;9.93;3.55;;;18.50;52.60;;;;;;4932032;28;92903;-64
2022/05/03 07:43:34;;;;;;;11.20;3.60;;;18.50;52.60;;;;;;4932571;28;92847;-65
2022/05/03 07:46:01;;;;;;;10.75;4.03;;;18.50;52.60;;;;;;4930489;28;95621;-64
2022/05/03 07:48:27;;;;;;;8.52;3.15;;;18.50;52.60;;;;;;4931723;28;96358;-64
2022/05/03 07:50:53;;;;;;;14.10;3.42;;;18.50;52.70;;;;;;4931463;28;95065;-64
2022/05/03 07:53:19;;;;;;;7.65;3.60;;;18.50;52.70;;;;;;4933824;28;92674;-64
2022/05/03 07:55:48;;;;;;;75.22;6.60;;;18.50;52.60;;;;;;4933743;28;94269;-66
2022/05/03 07:58:14;;;;;;;33.63;4.70;;;18.50;52.80;;;;;;4934102;28;94295;-63
2022/05/03 08:00:40;;;;;;;24.23;4.10;;;18.40;53.00;;;;;;4933163;28;92645;-63
2022/05/03 08:03:06;;;;;;;18.55;4.05;;;18.40;52.80;;;;;;4934342;28;92306;-63
2022/05/03 08:05:32;;;;;;;15.73;3.50;;;18.40;52.80;;;;;;4931938;28;94772;-63
2022/05/03 08:07:57;;;;;;;14.63;4.15;;;18.40;52.80;;;;;;4934531;28;93014;-63
2022/05/03 08:10:23;;;;;;;23.40;4.18;;;18.40;52.80;;;;;;4931678;28;95073;-63
2022/05/03 08:12:52;;;;;;;19.42;4.93;;;18.40;53.10;;;;;;4935482;28;92561;-63
2022/05/03 08:15:19;;;;;;;22.15;5.60;;;18.40;53.40;;;;;;4933412;28;94850;-63
2022/05/03 08:17:45;;;;;;;22.15;5.68;;;18.40;54.20;;;;;;4933540;28;94530;-64
2022/05/03 08:20:13;;;;;;;20.00;5.63;;;18.50;54.60;;;;;;4932465;28;92702;-64
2022/05/03 08:22:39;;;;;;;23.92;5.20;;;18.60;54.40;;;;;;4934074;28;92949;-63
2022/05/03 08:25:05;;;;;;;16.13;5.13;;;18.70;54.30;;;;;;4931884;28;94042;-64
2022/05/03 08:27:31;;;;;;;15.55;4.85;;;18.70;54.20;;;;;;4933314;28;94230;-64
2022/05/03 08:29:56;;;;;;;14.75;5.53;;;18.60;54.10;;;;;;4931873;28;92968;-64
2022/05/03 08:32:23;;;;;;;18.33;4.70;;;18.60;54.10;;;;;;4933604;28;92925;-64
2022/05/03 08:34:49;;;;;;;20.30;5.45;;;18.50;54.10;;;;;;4931223;28;95381;-64
2022/05/03 08:42:45;;;;;;;17.13;6.10;;;18.40;54.30;;;;;;4934054;28;93006;-64
2022/05/03 08:45:10;;;;;;;15.23;6.47;;;18.40;54.50;;;;;;4934635;28;93674;-64
2022/05/03 08:47:38;;;;;;;18.25;6.18;;;18.40;54.70;;;;;;4933115;28;93921;-64
2022/05/03 08:50:08;;;;;;;13.35;6.30;;;18.40;55.60;;;;;;4933739;28;92411;-63
2022/05/03 08:52:42;;;;;;;12.60;6.47;;;18.40;56.20;;;;;;4932420;28;92408;-63
2022/05/03 08:55:11;;;;;;;15.80;7.30;;;18.40;56.20;;;;;;4932627;28;93032;-63
2022/05/03 08:57:37;;;;;;;17.73;7.38;;;18.40;56.30;;;;;;4932385;28;94834;-63
2022/05/03 09:00:05;;;;;;;15.52;6.80;;;18.40;56.20;;;;;;4931300;28;95383;-63
2022/05/03 09:02:33;;;;;;;12.05;7.13;;;18.40;56.20;;;;;;4932465;28;93061;-65
2022/05/03 09:05:00;;;;;;;13.77;7.07;;;18.30;56.20;;;;;;4932794;28;94622;-63
2022/05/03 09:07:26;;;;;;;20.40;6.55;;;18.30;56.20;;;;;;4914784;28;93047;-63
2022/05/03 09:09:53;;;;;;;15.88;7.80;;;18.30;56.10;;;;;;4933021;28;92620;-63
2022/05/03 09:12:30;;;;;;;11.15;7.53;;;18.30;56.00;;;;;;4933218;28;93192;-63
2022/05/03 09:15:01;;;;;;;14.70;7.45;;;18.30;56.20;;;;;;4932493;28;94851;-63
2022/05/03 09:17:46;;;;;;;16.58;7.82;;;18.30;56.00;;;;;;4933969;28;92857;-63
2022/05/03 09:25:54;;;;;;;17.02;9.13;;;18.20;56.60;;;;;;4931963;28;95105;-64
2022/05/03 09:28:22;;;;;;;16.88;9.00;;;18.20;58.00;;;;;;4931449;28;95642;-63
2022/05/03 09:30:52;;;;;;;19.20;9.80;;;18.20;58.90;;;;;;4932553;28;92939;-64
2022/05/03 09:33:23;;;;;;;16.60;9.88;;;18.20;58.90;;;;;;4932681;28;92771;-65
2022/05/03 09:35:50;;;;;;;18.20;10.48;;;18.20;59.30;;;;;;4932256;28;94072;-64
2022/05/03 09:38:16;;;;;;;19.77;10.13;;;18.20;59.50;;;;;;4932286;28;92969;-64
2022/05/03 09:40:44;;;;;;;18.00;10.52;;;18.20;59.70;;;;;;4932229;28;92874;-65
2022/05/03 09:43:10;;;;;;;20.00;11.00;;;18.20;59.80;;;;;;4931223;28;91827;-65
2022/05/03 09:45:36;;;;;;;15.18;10.55;;;18.20;60.00;;;;;;4931377;28;95263;-64
2022/05/03 09:48:03;;;;;;;19.05;10.95;;;18.30;60.00;;;;;;4931266;28;94057;-65
2022/05/03 09:50:43;;;;;;;18.63;10.07;;;18.30;60.10;;;;;;4930092;28;94917;-65
2022/05/03 09:53:16;;;;;;;19.90;10.23;;;18.30;60.00;;;;;;4932217;28;93024;-64
2022/05/03 09:55:42;;;;;;;15.65;9.15;;;18.30;60.10;;;;;;4932718;28;94601;-64
2022/05/03 09:58:10;;;;;;;16.10;10.52;;;18.30;60.10;;;;;;4931840;28;94464;-64
2022/05/03 10:00:39;;;;;;;17.60;10.25;;;18.40;60.20;;;;;;4931224;28;92894;-64
2022/05/03 10:03:09;;;;;;;18.15;11.05;;;18.40;60.20;;;;;;4930793;28;92873;-65
2022/05/03 10:05:42;;;;;;;18.73;10.23;;;18.40;60.00;;;;;;4930958;28;94259;-64
2022/05/03 10:08:16;;;;;;;19.92;10.77;;;18.40;60.00;;;;;;4931790;28;92705;-64
2022/05/03 10:10:43;;;;;;;17.08;11.48;;;18.40;59.90;;;;;;4931240;28;92756;-63
2022/05/03 10:13:13;;;;;;;15.32;10.23;;;18.40;59.80;;;;;;4930898;28;92760;-64
2022/05/03 10:21:27;;;;;;;15.98;10.02;;;18.30;59.10;;;;;;4930119;28;93257;-64
2022/05/03 10:24:11;;;;;;;15.32;9.07;;;18.30;58.90;;;;;;4931993;28;93010;-64
2022/05/03 10:26:52;;;;;;;17.00;9.43;;;18.30;58.80;;;;;;4931154;28;94058;-65
2022/05/03 10:29:19;;;;;;;15.75;9.07;;;18.30;58.80;;;;;;4931399;28;94168;-64
2022/05/03 10:32:05;;;;;;;15.55;9.25;;;18.20;58.70;;;;;;4931470;28;92957;-64
2022/05/03 10:34:40;;;;;;;16.13;9.00;;;18.20;58.60;;;;;;4913619;28;91988;-64
2022/05/03 10:37:06;;;;;;;13.77;9.05;;;18.20;58.70;;;;;;4930922;28;94131;-65
2022/05/03 10:40:09;;;;;;;17.23;9.80;;;18.10;58.60;;;;;;4930964;28;94471;-64
2022/05/03 10:42:34;;;;;;;13.70;9.20;;;18.10;58.30;;;;;;4878555;28;95406;-66
2022/05/03 10:45:14;;;;;;;13.45;9.25;;;18.10;58.50;;;;;;4932288;28;92972;-64
2022/05/03 10:47:43;;;;;;;17.02;9.07;;;18.10;58.40;;;;;;4931283;28;95005;-64
2022/05/03 10:50:17;;;;;;;14.25;9.00;;;18.10;58.40;;;;;;4930566;28;93332;-64
2022/05/03 10:52:44;;;;;;;14.00;8.80;;;18.10;58.30;;;;;;4931728;28;92450;-64
2022/05/03 10:55:11;;;;;;;14.55;8.32;;;18.00;58.40;;;;;;4931690;28;92681;-64
2022/05/03 10:58:14;;;;;;;10.27;8.13;;;18.00;58.40;;;;;;4930900;28;94120;-64
2022/05/03 11:01:04;;;;;;;12.95;7.10;;;18.00;58.20;;;;;;4932533;28;93385;-64
2022/05/03 11:03:32;;;;;;;13.88;8.15;;;18.00;58.20;;;;;;4932539;28;92788;-64
2022/05/03 11:06:19;;;;;;;12.30;7.85;;;18.00;58.40;;;;;;4931038;28;92624;-64
2022/05/03 11:11:42;;;;;;;10.98;7.70;;;17.90;58.00;;;;;;4928600;28;95626;-65
2022/05/03 11:14:20;;;;;;;10.38;7.55;;;17.90;58.00;;;;;;4930889;28;92872;-64
2022/05/03 11:16:53;;;;;;;11.35;7.43;;;18.00;58.00;;;;;;4931123;28;93123;-64
2022/05/03 11:19:23;;;;;;;10.10;7.00;;;17.90;58.00;;;;;;4929629;28;93133;-64
2022/05/03 11:21:50;;;;;;;9.98;6.82;;;17.90;57.90;;;;;;4930124;28;93977;-65
2022/05/03 11:24:31;;;;;;;10.18;6.63;;;17.90;58.00;;;;;;4930332;28;92826;-64
2022/05/03 11:26:59;;;;;;;10.02;6.43;;;17.90;57.80;;;;;;4913798;28;92108;-64
2022/05/03 11:29:49;;;;;;;12.27;7.18;;;17.90;58.80;;;;;;4930588;28;93727;-66
2022/05/03 11:32:16;;;;;;;9.68;6.82;;;17.90;57.60;;;;;;4933744;28;94035;-65
2022/05/03 11:34:43;;;;;;;8.73;6.25;;;17.90;57.70;;;;;;4931928;28;95617;-64
2022/05/03 11:37:09;;;;;;;10.90;6.53;;;17.90;57.70;;;;;;4934331;28;93053;-65
2022/05/03 11:39:36;;;;;;;9.70;6.68;;;17.90;57.60;;;;;;4933891;28;92503;-65
2022/05/03 11:42:08;;;;;;;11.20;6.97;;;17.90;57.50;;;;;;4933421;28;93951;-65
2022/05/03 11:44:34;;;;;;;10.82;6.00;;;17.90;57.50;;;;;;4933926;28;93154;-66
2022/05/03 11:47:03;;;;;;;8.35;5.90;;;17.90;57.50;;;;;;4934134;28;93056;-65
2022/05/03 11:49:31;;;;;;;9.20;6.20;;;17.90;57.40;;;;;;4933062;28;94208;-65
2022/05/03 11:57:42;;;;;;;10.20;5.63;;;17.80;57.20;;;;;;4934678;28;92977;-66
2022/05/03 12:00:11;;;;;;;10.90;5.47;;;17.80;57.20;;;;;;4932695;28;95756;-65
2022/05/03 12:02:46;;;;;;;10.73;5.90;;;17.80;57.20;;;;;;4932806;28;96507;-66
2022/05/03 12:05:18;;;;;;;11.30;6.00;;;17.80;57.10;;;;;;4933940;28;92956;-65
2022/05/03 12:07:54;;;;;;;7.87;4.40;;;17.80;57.20;;;;;;4933832;28;92603;-65
2022/05/03 12:10:24;;;;;;;9.93;5.82;;;17.80;57.20;;;;;;4934502;28;93917;-65
2022/05/03 12:13:08;;;;;;;10.20;6.07;;;17.80;57.20;;;;;;4934546;28;93856;-66
2022/05/03 12:15:44;;;;;;;8.60;5.50;;;17.80;57.10;;;;;;4933818;28;92729;-65
2022/05/03 12:18:15;;;;;;;9.77;5.35;;;17.80;57.10;;;;;;4932694;28;92200;-65
2022/05/03 12:20:54;;;;;;;8.77;5.25;;;17.80;57.10;;;;;;4932721;28;94302;-65
2022/05/03 12:23:22;;;;;;;11.27;5.65;;;17.80;58.00;;;;;;4932888;28;93886;-66
2022/05/03 12:25:54;;;;;;;8.27;5.70;;;17.80;56.90;;;;;;4931918;28;95432;-65
2022/05/03 12:28:21;;;;;;;10.60;5.85;;;17.80;56.90;;;;;;4932966;28;92979;-65
2022/05/03 12:30:57;;;;;;;7.28;4.72;;;17.80;56.90;;;;;;4932435;28;94562;-65
2022/05/03 12:33:27;;;;;;;7.93;5.20;;;17.80;56.80;;;;;;4933460;28;93845;-63
2022/05/03 12:35:53;;;;;;;9.98;5.38;;;17.80;56.80;;;;;;4933205;28;92989;-63
2022/05/03 12:38:22;;;;;;;10.65;5.18;;;17.80;56.70;;;;;;4932596;28;92674;-64
2022/05/03 12:41:00;;;;;;;8.05;4.97;;;17.80;56.70;;;;;;4932846;28;94132;-63
2022/05/03 12:43:27;;;;;;;8.75;5.28;;;17.80;56.60;;;;;;4932407;28;93361;-62
2022/05/03 12:46:04;;;;;;;7.80;5.13;;;17.80;56.50;;;;;;4932497;28;92544;-63
2022/05/03 12:48:31;;;;;;;10.27;5.25;;;17.80;56.50;;;;;;4932742;28;92730;-63
2022/05/03 12:50:58;;;;;;;9.30;5.20;;;17.80;56.50;;;;;;4930890;28;96983;-63
2022/05/03 12:53:26;;;;;;;11.00;5.30;;;17.80;56.50;;;;;;4933402;28;95477;-62
2022/05/03 12:55:53;;;;;;;8.35;5.07;;;17.80;56.40;;;;;;4932409;28;93079;-64
2022/05/03 12:58:27;;;;;;;7.97;4.95;;;17.80;56.30;;;;;;4932987;28;92579;-64
2022/05/03 13:00:55;;;;;;;7.82;5.10;;;17.80;56.30;;;;;;4932638;28;94198;-66
2022/05/03 13:03:21;;;;;;;8.35;4.82;;;17.90;56.30;;;;;;4933455;28;92636;-63
2022/05/03 13:05:48;;;;;;;8.55;4.95;;;17.80;56.20;;;;;;4931776;28;92806;-64
2022/05/03 13:08:15;;;;;;;6.75;4.82;;;17.80;56.10;;;;;;4932882;28;91816;-64
2022/05/03 13:10:41;;;;;;;6.65;4.60;;;17.80;56.10;;;;;;4931642;28;94330;-64
2022/05/03 13:13:09;;;;;;;8.05;4.90;;;17.80;56.00;;;;;;4931849;28;94385;-64
2022/05/03 13:15:34;;;;;;;8.00;4.93;;;17.80;55.90;;;;;;4931887;28;94920;-65
2022/05/03 13:18:00;;;;;;;7.70;4.72;;;17.80;55.90;;;;;;4933059;28;93195;-64
2022/05/03 13:20:27;;;;;;;6.82;4.63;;;17.80;56.00;;;;;;4932963;28;93315;-66
2022/05/03 13:22:54;;;;;;;6.78;4.75;;;17.80;55.90;;;;;;4932366;28;93267;-64
2022/05/03 13:25:20;;;;;;;5.85;4.38;;;17.80;55.90;;;;;;4932981;28;92608;-64
2022/05/03 13:27:47;;;;;;;7.72;4.30;;;17.80;56.90;;;;;;4932200;28;93157;-64
2022/05/03 13:30:14;;;;;;;6.57;4.32;;;17.80;55.90;;;;;;4931869;28;94224;-65
2022/05/03 13:32:40;;;;;;;7.38;4.63;;;17.80;55.90;;;;;;4914086;28;93887;-65
2022/05/03 13:35:07;;;;;;;7.85;4.22;;;17.80;55.90;;;;;;4931907;28;93069;-65
2022/05/03 13:40:29;;;;;;;8.15;4.25;;;17.80;55.80;;;;;;4929861;28;95116;-64
2022/05/03 13:42:59;;;;;;;7.53;4.63;;;17.80;55.90;;;;;;4931871;28;96338;-65
2022/05/03 13:45:26;;;;;;;9.75;4.63;;;17.80;55.70;;;;;;4914135;28;92525;-65
2022/05/03 13:47:52;;;;;;;6.45;4.15;;;17.80;55.70;;;;;;4931222;28;92804;-65
2022/05/03 13:50:18;;;;;;;7.88;4.55;;;17.80;55.60;;;;;;4931534;28;94137;-63
2022/05/03 13:52:43;;;;;;;6.80;4.30;;;17.80;55.60;;;;;;4913463;28;93976;-63
2022/05/03 13:55:09;;;;;;;5.15;3.58;;;17.80;55.60;;;;;;4931416;28;92812;-63
2022/05/03 13:57:35;;;;;;;7.68;3.97;;;17.80;55.60;;;;;;4931661;28;92079;-64
2022/05/03 14:00:10;;;;;;;8.02;4.20;;;17.80;55.50;;;;;;4930717;28;94386;-63
2022/05/03 14:02:37;;;;;;;5.82;3.72;;;17.90;55.50;;;;;;4931181;28;95028;-65
2022/05/03 14:05:04;;;;;;;9.23;3.80;;;17.90;55.50;;;;;;4930708;28;95273;-65
2022/05/03 14:07:33;;;;;;;8.45;3.95;;;17.90;55.50;;;;;;4931615;28;93128;-64
2022/05/03 14:09:59;;;;;;;7.60;3.90;;;17.90;55.40;;;;;;4931740;28;93212;-64
2022/05/03 14:12:24;;;;;;;7.05;3.75;;;17.90;55.30;;;;;;4931673;28;93606;-64
2022/05/03 14:14:50;;;;;;;7.28;3.92;;;17.90;55.10;;;;;;4931971;28;93166;-64
2022/05/03 14:17:17;;;;;;;7.00;3.67;;;17.90;55.20;;;;;;4933023;28;93253;-64
2022/05/03 14:19:42;;;;;;;6.80;3.83;;;17.90;55.20;;;;;;4930515;28;93134;-64
2022/05/03 14:22:08;;;;;;;6.15;3.70;;;17.90;55.10;;;;;;4932062;28;93798;-64
2022/05/03 14:24:33;;;;;;;6.95;3.58;;;17.90;55.00;;;;;;4931971;28;92550;-64
2022/05/03 14:26:59;;;;;;;8.27;3.88;;;17.90;55.10;;;;;;4931991;28;92464;-65
2022/05/03 14:29:24;;;;;;;7.53;3.60;;;17.90;54.90;;;;;;4930117;28;96519;-64
2022/05/03 14:31:51;;;;;;;8.02;3.70;;;17.90;54.90;;;;;;4930662;28;96196;-65
2022/05/03 14:34:17;;;;;;;5.63;3.75;;;18.00;54.80;;;;;;4931476;28;92887;-65
2022/05/03 14:36:43;;;;;;;5.25;3.45;;;18.00;54.80;;;;;;4932039;28;93422;-65
2022/05/03 14:39:08;;;;;;;5.78;3.60;;;18.00;54.70;;;;;;4931943;28;94619;-65
2022/05/03 14:41:37;;;;;;;5.85;3.50;;;18.00;54.70;;;;;;4931813;28;93200;-65
2022/05/03 14:44:03;;;;;;;6.15;3.45;;;18.00;55.00;;;;;;4932133;28;92494;-65
2022/05/03 14:46:29;;;;;;;8.75;3.80;;;18.00;54.60;;;;;;4931682;28;91978;-65
2022/05/03 14:48:54;;;;;;;5.63;3.70;;;18.00;54.60;;;;;;4930983;28;97993;-65